sensor_id;sensor_type;location;lat;lon;timestamp;temperature;humidity
58993;DHT22;44782;0.000;0.000;2023-05-10T00:01:12;19.20;62.90
58993;DHT22;44782;0.000;0.000;2023-05-10T00:03:28;19.20;62.90
58993;DHT22;44782;0.000;0.000;2023-05-10T00:05:44;19.20;62.90
58993;DHT22;44782;0.000;0.000;2023-05-10T00:07:59;19.20;62.90
58993;DHT22;44782;0.000;0.000;2023-05-10T00:10:15;19.20;62.90
58993;DHT22;44782;0.000;0.000;2023-05-10T00:12:31;19.20;62.90
58993;DHT22;44782;0.000;0.000;2023-05-10T00:14:47;19.20;62.90
58993;DHT22;44782;0.000;0.000;2023-05-10T00:17:02;19.20;62.80
58993;DHT22;44782;0.000;0.000;2023-05-10T00:19:18;19.20;62.80
58993;DHT22;44782;0.000;0.000;2023-05-10T00:21:34;19.10;62.70
58993;DHT22;44782;0.000;0.000;2023-05-10T00:23:49;19.20;62.80
58993;DHT22;44782;0.000;0.000;2023-05-10T00:26:05;19.20;62.80
58993;DHT22;44782;0.000;0.000;2023-05-10T00:28:21;19.10;63.40
58993;DHT22;44782;0.000;0.000;2023-05-10T00:30:37;19.10;62.70
58993;DHT22;44782;0.000;0.000;2023-05-10T00:32:52;19.10;62.70
58993;DHT22;44782;0.000;0.000;2023-05-10T00:35:08;19.10;62.70
58993;DHT22;44782;0.000;0.000;2023-05-10T00:37:24;19.10;62.70
58993;DHT22;44782;0.000;0.000;2023-05-10T00:39:40;19.10;62.70
58993;DHT22;44782;0.000;0.000;2023-05-10T00:41:55;19.10;62.60
58993;DHT22;44782;0.000;0.000;2023-05-10T00:44:11;19.10;62.60
58993;DHT22;44782;0.000;0.000;2023-05-10T00:46:27;19.10;62.60
58993;DHT22;44782;0.000;0.000;2023-05-10T00:48:44;19.10;62.50
58993;DHT22;44782;0.000;0.000;2023-05-10T00:51:01;19.10;62.50
58993;DHT22;44782;0.000;0.000;2023-05-10T00:53:20;19.10;62.50
58993;DHT22;44782;0.000;0.000;2023-05-10T00:55:36;19.10;62.50
58993;DHT22;44782;0.000;0.000;2023-05-10T00:57:53;19.10;62.50
58993;DHT22;44782;0.000;0.000;2023-05-10T01:00:09;19.10;62.50
58993;DHT22;44782;0.000;0.000;2023-05-10T01:02:26;19.10;62.50
58993;DHT22;44782;0.000;0.000;2023-05-10T01:04:43;19.10;62.50
58993;DHT22;44782;0.000;0.000;2023-05-10T01:06:59;19.10;62.50
58993;DHT22;44782;0.000;0.000;2023-05-10T01:09:14;19.00;62.40
58993;DHT22;44782;0.000;0.000;2023-05-10T01:11:30;19.00;62.40
58993;DHT22;44782;0.000;0.000;2023-05-10T01:13:50;19.00;62.40
58993;DHT22;44782;0.000;0.000;2023-05-10T01:16:07;19.00;62.30
58993;DHT22;44782;0.000;0.000;2023-05-10T01:18:24;19.00;62.40
58993;DHT22;44782;0.000;0.000;2023-05-10T01:20:43;19.00;62.30
58993;DHT22;44782;0.000;0.000;2023-05-10T01:25:43;19.00;62.20
58993;DHT22;44782;0.000;0.000;2023-05-10T01:33:14;19.00;62.40
58993;DHT22;44782;0.000;0.000;2023-05-10T01:40:52;19.00;62.10
58993;DHT22;44782;0.000;0.000;2023-05-10T01:43:17;19.00;62.10
58993;DHT22;44782;0.000;0.000;2023-05-10T01:46:07;18.90;62.20
58993;DHT22;44782;0.000;0.000;2023-05-10T01:48:28;19.00;61.90
58993;DHT22;44782;0.000;0.000;2023-05-10T01:50:45;18.90;62.30
58993;DHT22;44782;0.000;0.000;2023-05-10T01:53:03;18.90;62.20
58993;DHT22;44782;0.000;0.000;2023-05-10T01:55:24;18.90;62.20
58993;DHT22;44782;0.000;0.000;2023-05-10T01:57:43;18.90;62.20
58993;DHT22;44782;0.000;0.000;2023-05-10T02:00:00;18.90;62.10
58993;DHT22;44782;0.000;0.000;2023-05-10T02:02:18;18.90;62.20
58993;DHT22;44782;0.000;0.000;2023-05-10T02:04:37;18.90;62.10
58993;DHT22;44782;0.000;0.000;2023-05-10T02:06:55;18.90;62.00
58993;DHT22;44782;0.000;0.000;2023-05-10T02:09:11;18.90;62.10
58993;DHT22;44782;0.000;0.000;2023-05-10T02:11:29;18.90;62.80
58993;DHT22;44782;0.000;0.000;2023-05-10T02:13:49;18.90;62.00
58993;DHT22;44782;0.000;0.000;2023-05-10T02:16:05;18.90;62.00
58993;DHT22;44782;0.000;0.000;2023-05-10T02:18:22;18.90;62.00
58993;DHT22;44782;0.000;0.000;2023-05-10T02:20:39;18.90;62.00
58993;DHT22;44782;0.000;0.000;2023-05-10T02:22:56;18.90;62.00
58993;DHT22;44782;0.000;0.000;2023-05-10T02:25:14;18.90;62.00
58993;DHT22;44782;0.000;0.000;2023-05-10T02:27:31;18.90;62.00
58993;DHT22;44782;0.000;0.000;2023-05-10T02:29:51;18.90;62.00
58993;DHT22;44782;0.000;0.000;2023-05-10T02:32:08;18.90;61.90
58993;DHT22;44782;0.000;0.000;2023-05-10T02:34:29;18.80;61.90
58993;DHT22;44782;0.000;0.000;2023-05-10T02:36:49;18.80;61.80
58993;DHT22;44782;0.000;0.000;2023-05-10T02:39:06;18.80;61.90
58993;DHT22;44782;0.000;0.000;2023-05-10T02:41:25;18.80;61.90
58993;DHT22;44782;0.000;0.000;2023-05-10T02:43:42;18.80;61.90
58993;DHT22;44782;0.000;0.000;2023-05-10T02:45:58;18.80;61.90
58993;DHT22;44782;0.000;0.000;2023-05-10T02:48:14;18.80;61.90
58993;DHT22;44782;0.000;0.000;2023-05-10T02:50:33;18.80;61.90
58993;DHT22;44782;0.000;0.000;2023-05-10T02:52:55;18.80;61.80
58993;DHT22;44782;0.000;0.000;2023-05-10T02:55:16;18.80;61.70
58993;DHT22;44782;0.000;0.000;2023-05-10T02:57:34;18.80;61.80
58993;DHT22;44782;0.000;0.000;2023-05-10T02:59:50;18.80;61.90
58993;DHT22;44782;0.000;0.000;2023-05-10T03:02:06;18.80;61.80
58993;DHT22;44782;0.000;0.000;2023-05-10T03:04:22;18.70;61.80
58993;DHT22;44782;0.000;0.000;2023-05-10T03:06:37;18.80;61.80
58993;DHT22;44782;0.000;0.000;2023-05-10T03:14:07;18.80;61.50
58993;DHT22;44782;0.000;0.000;2023-05-10T03:16:41;18.80;61.50
58993;DHT22;44782;0.000;0.000;2023-05-10T03:19:16;18.70;61.70
58993;DHT22;44782;0.000;0.000;2023-05-10T03:21:32;18.70;61.50
58993;DHT22;44782;0.000;0.000;2023-05-10T03:23:59;18.70;61.70
58993;DHT22;44782;0.000;0.000;2023-05-10T03:26:24;18.70;61.50
58993;DHT22;44782;0.000;0.000;2023-05-10T03:28:41;18.70;61.50
58993;DHT22;44782;0.000;0.000;2023-05-10T03:30:57;18.70;61.70
58993;DHT22;44782;0.000;0.000;2023-05-10T03:33:14;18.70;61.70
58993;DHT22;44782;0.000;0.000;2023-05-10T03:35:30;18.70;61.60
58993;DHT22;44782;0.000;0.000;2023-05-10T03:37:45;18.70;61.70
58993;DHT22;44782;0.000;0.000;2023-05-10T03:40:02;18.70;61.60
58993;DHT22;44782;0.000;0.000;2023-05-10T03:42:18;18.70;61.70
58993;DHT22;44782;0.000;0.000;2023-05-10T03:44:33;18.60;61.50
58993;DHT22;44782;0.000;0.000;2023-05-10T03:46:49;18.70;61.50
58993;DHT22;44782;0.000;0.000;2023-05-10T03:49:04;18.70;61.60
58993;DHT22;44782;0.000;0.000;2023-05-10T03:51:20;18.70;61.60
58993;DHT22;44782;0.000;0.000;2023-05-10T03:53:36;18.60;61.50
58993;DHT22;44782;0.000;0.000;2023-05-10T03:55:52;18.70;61.60
58993;DHT22;44782;0.000;0.000;2023-05-10T03:58:10;18.60;61.50
58993;DHT22;44782;0.000;0.000;2023-05-10T04:00:26;18.60;61.40
58993;DHT22;44782;0.000;0.000;2023-05-10T04:02:42;18.70;61.50
58993;DHT22;44782;0.000;0.000;2023-05-10T04:04:57;18.70;61.50
58993;DHT22;44782;0.000;0.000;2023-05-10T04:07:13;18.60;61.40
58993;DHT22;44782;0.000;0.000;2023-05-10T04:09:29;18.60;61.40
58993;DHT22;44782;0.000;0.000;2023-05-10T04:11:44;18.60;61.40
58993;DHT22;44782;0.000;0.000;2023-05-10T04:14:00;18.60;61.40
58993;DHT22;44782;0.000;0.000;2023-05-10T04:16:16;18.60;61.40
58993;DHT22;44782;0.000;0.000;2023-05-10T04:18:31;18.60;61.40
58993;DHT22;44782;0.000;0.000;2023-05-10T04:20:47;18.60;61.30
58993;DHT22;44782;0.000;0.000;2023-05-10T04:23:02;18.60;61.30
58993;DHT22;44782;0.000;0.000;2023-05-10T04:25:18;18.60;62.00
58993;DHT22;44782;0.000;0.000;2023-05-10T04:27:34;18.60;61.30
58993;DHT22;44782;0.000;0.000;2023-05-10T04:29:49;18.60;61.30
58993;DHT22;44782;0.000;0.000;2023-05-10T04:32:05;18.60;61.30
58993;DHT22;44782;0.000;0.000;2023-05-10T04:34:21;18.60;61.30
58993;DHT22;44782;0.000;0.000;2023-05-10T04:36:37;18.60;61.30
58993;DHT22;44782;0.000;0.000;2023-05-10T04:38:52;18.50;61.20
58993;DHT22;44782;0.000;0.000;2023-05-10T04:41:09;18.50;61.20
58993;DHT22;44782;0.000;0.000;2023-05-10T04:43:25;18.50;61.20
58993;DHT22;44782;0.000;0.000;2023-05-10T04:45:41;18.50;61.20
58993;DHT22;44782;0.000;0.000;2023-05-10T04:47:57;18.50;61.20
58993;DHT22;44782;0.000;0.000;2023-05-10T04:50:12;18.50;61.20
58993;DHT22;44782;0.000;0.000;2023-05-10T04:52:28;18.50;61.20
58993;DHT22;44782;0.000;0.000;2023-05-10T04:54:44;18.50;61.20
58993;DHT22;44782;0.000;0.000;2023-05-10T04:56:59;18.50;61.20
58993;DHT22;44782;0.000;0.000;2023-05-10T04:59:15;18.50;61.10
58993;DHT22;44782;0.000;0.000;2023-05-10T05:01:30;18.50;61.10
58993;DHT22;44782;0.000;0.000;2023-05-10T05:03:46;18.50;61.10
58993;DHT22;44782;0.000;0.000;2023-05-10T05:06:02;18.50;61.10
58993;DHT22;44782;0.000;0.000;2023-05-10T05:08:18;18.50;61.00
58993;DHT22;44782;0.000;0.000;2023-05-10T05:10:34;18.50;61.00
58993;DHT22;44782;0.000;0.000;2023-05-10T05:12:49;18.50;61.10
58993;DHT22;44782;0.000;0.000;2023-05-10T05:15:05;18.50;61.00
58993;DHT22;44782;0.000;0.000;2023-05-10T05:17:24;18.50;61.10
58993;DHT22;44782;0.000;0.000;2023-05-10T05:19:40;18.50;61.00
58993;DHT22;44782;0.000;0.000;2023-05-10T05:21:56;18.50;61.00
58993;DHT22;44782;0.000;0.000;2023-05-10T05:24:11;18.50;61.00
58993;DHT22;44782;0.000;0.000;2023-05-10T05:26:28;18.50;61.10
58993;DHT22;44782;0.000;0.000;2023-05-10T05:28:43;18.50;61.00
58993;DHT22;44782;0.000;0.000;2023-05-10T05:30:59;18.50;61.00
58993;DHT22;44782;0.000;0.000;2023-05-10T05:33:14;18.50;61.00
58993;DHT22;44782;0.000;0.000;2023-05-10T05:35:30;18.50;61.00
58993;DHT22;44782;0.000;0.000;2023-05-10T05:37:46;18.40;61.00
58993;DHT22;44782;0.000;0.000;2023-05-10T05:40:02;18.50;61.00
58993;DHT22;44782;0.000;0.000;2023-05-10T05:42:17;18.50;61.00
58993;DHT22;44782;0.000;0.000;2023-05-10T05:44:34;18.50;61.00
58993;DHT22;44782;0.000;0.000;2023-05-10T05:46:49;18.40;61.00
58993;DHT22;44782;0.000;0.000;2023-05-10T05:49:05;18.40;60.90
58993;DHT22;44782;0.000;0.000;2023-05-10T05:51:20;18.40;61.00
58993;DHT22;44782;0.000;0.000;2023-05-10T05:53:36;18.40;60.90
58993;DHT22;44782;0.000;0.000;2023-05-10T05:55:56;18.40;60.90
58993;DHT22;44782;0.000;0.000;2023-05-10T05:58:13;18.40;60.80
58993;DHT22;44782;0.000;0.000;2023-05-10T06:00:31;18.40;60.90
58993;DHT22;44782;0.000;0.000;2023-05-10T06:02:47;18.40;60.80
58993;DHT22;44782;0.000;0.000;2023-05-10T06:05:03;18.40;60.90
58993;DHT22;44782;0.000;0.000;2023-05-10T06:07:19;18.40;60.90
58993;DHT22;44782;0.000;0.000;2023-05-10T06:09:35;18.40;60.90
58993;DHT22;44782;0.000;0.000;2023-05-10T06:11:51;18.40;60.90
58993;DHT22;44782;0.000;0.000;2023-05-10T06:14:06;18.40;60.90
58993;DHT22;44782;0.000;0.000;2023-05-10T06:16:23;18.40;60.90
58993;DHT22;44782;0.000;0.000;2023-05-10T06:18:38;18.40;60.90
58993;DHT22;44782;0.000;0.000;2023-05-10T06:20:56;18.40;60.90
58993;DHT22;44782;0.000;0.000;2023-05-10T06:23:12;18.40;60.90
58993;DHT22;44782;0.000;0.000;2023-05-10T06:25:28;18.40;60.90
58993;DHT22;44782;0.000;0.000;2023-05-10T06:27:44;18.40;60.90
58993;DHT22;44782;0.000;0.000;2023-05-10T06:30:00;18.40;60.90
58993;DHT22;44782;0.000;0.000;2023-05-10T06:32:15;18.40;60.90
58993;DHT22;44782;0.000;0.000;2023-05-10T06:34:31;18.40;60.90
58993;DHT22;44782;0.000;0.000;2023-05-10T06:36:47;18.40;60.90
58993;DHT22;44782;0.000;0.000;2023-05-10T06:39:03;18.40;60.90
58993;DHT22;44782;0.000;0.000;2023-05-10T06:41:18;18.40;60.80
58993;DHT22;44782;0.000;0.000;2023-05-10T06:43:34;18.40;60.90
58993;DHT22;44782;0.000;0.000;2023-05-10T06:45:50;18.40;60.90
58993;DHT22;44782;0.000;0.000;2023-05-10T06:48:05;18.30;60.80
58993;DHT22;44782;0.000;0.000;2023-05-10T06:50:21;18.30;60.80
58993;DHT22;44782;0.000;0.000;2023-05-10T06:52:37;18.30;60.80
58993;DHT22;44782;0.000;0.000;2023-05-10T06:54:53;18.30;60.80
58993;DHT22;44782;0.000;0.000;2023-05-10T06:57:08;18.30;60.80
58993;DHT22;44782;0.000;0.000;2023-05-10T06:59:24;18.30;60.80
58993;DHT22;44782;0.000;0.000;2023-05-10T07:01:39;18.30;60.80
58993;DHT22;44782;0.000;0.000;2023-05-10T07:03:55;18.40;60.80
58993;DHT22;44782;0.000;0.000;2023-05-10T07:06:11;18.30;60.80
58993;DHT22;44782;0.000;0.000;2023-05-10T07:08:27;18.40;60.80
58993;DHT22;44782;0.000;0.000;2023-05-10T07:10:42;18.30;60.80
58993;DHT22;44782;0.000;0.000;2023-05-10T07:12:58;18.30;60.80
58993;DHT22;44782;0.000;0.000;2023-05-10T07:15:14;18.30;60.80
58993;DHT22;44782;0.000;0.000;2023-05-10T07:17:31;18.30;60.80
58993;DHT22;44782;0.000;0.000;2023-05-10T07:19:48;18.30;60.70
58993;DHT22;44782;0.000;0.000;2023-05-10T07:22:04;18.30;60.80
58993;DHT22;44782;0.000;0.000;2023-05-10T07:24:19;18.30;60.80
58993;DHT22;44782;0.000;0.000;2023-05-10T07:26:35;18.30;60.80
58993;DHT22;44782;0.000;0.000;2023-05-10T07:28:51;18.30;60.80
58993;DHT22;44782;0.000;0.000;2023-05-10T07:31:06;18.30;60.80
58993;DHT22;44782;0.000;0.000;2023-05-10T07:33:22;18.30;60.80
58993;DHT22;44782;0.000;0.000;2023-05-10T07:35:38;18.30;60.80
58993;DHT22;44782;0.000;0.000;2023-05-10T07:37:53;18.30;61.50
58993;DHT22;44782;0.000;0.000;2023-05-10T07:40:09;18.30;60.80
58993;DHT22;44782;0.000;0.000;2023-05-10T07:42:25;18.30;60.80
58993;DHT22;44782;0.000;0.000;2023-05-10T07:44:40;18.30;60.90
58993;DHT22;44782;0.000;0.000;2023-05-10T07:46:57;18.30;60.80
58993;DHT22;44782;0.000;0.000;2023-05-10T07:49:12;18.30;60.80
58993;DHT22;44782;0.000;0.000;2023-05-10T07:51:28;18.30;60.80
58993;DHT22;44782;0.000;0.000;2023-05-10T07:53:44;18.30;60.80
58993;DHT22;44782;0.000;0.000;2023-05-10T07:56:19;18.30;60.80
58993;DHT22;44782;0.000;0.000;2023-05-10T07:58:35;18.30;60.80
58993;DHT22;44782;0.000;0.000;2023-05-10T08:00:50;18.30;60.90
58993;DHT22;44782;0.000;0.000;2023-05-10T08:03:06;18.30;60.80
58993;DHT22;44782;0.000;0.000;2023-05-10T08:05:22;18.30;60.80
58993;DHT22;44782;0.000;0.000;2023-05-10T08:07:37;18.30;60.80
58993;DHT22;44782;0.000;0.000;2023-05-10T08:09:53;18.30;60.80
58993;DHT22;44782;0.000;0.000;2023-05-10T08:12:09;18.30;60.80
58993;DHT22;44782;0.000;0.000;2023-05-10T08:14:24;18.30;60.80
58993;DHT22;44782;0.000;0.000;2023-05-10T08:16:40;18.30;60.80
58993;DHT22;44782;0.000;0.000;2023-05-10T08:18:56;18.30;60.80
58993;DHT22;44782;0.000;0.000;2023-05-10T08:21:12;18.30;60.80
58993;DHT22;44782;0.000;0.000;2023-05-10T08:23:27;18.30;60.90
58993;DHT22;44782;0.000;0.000;2023-05-10T08:25:43;18.30;60.80
58993;DHT22;44782;0.000;0.000;2023-05-10T08:27:59;18.20;60.80
58993;DHT22;44782;0.000;0.000;2023-05-10T08:30:14;18.30;60.90
58993;DHT22;44782;0.000;0.000;2023-05-10T08:32:30;18.20;60.80
58993;DHT22;44782;0.000;0.000;2023-05-10T08:34:46;18.30;60.90
58993;DHT22;44782;0.000;0.000;2023-05-10T08:37:02;18.30;60.90
58993;DHT22;44782;0.000;0.000;2023-05-10T08:39:17;18.20;60.90
58993;DHT22;44782;0.000;0.000;2023-05-10T08:41:33;18.20;60.90
58993;DHT22;44782;0.000;0.000;2023-05-10T08:43:50;18.20;60.90
58993;DHT22;44782;0.000;0.000;2023-05-10T08:46:07;18.20;60.90
58993;DHT22;44782;0.000;0.000;2023-05-10T08:48:24;18.20;60.90
58993;DHT22;44782;0.000;0.000;2023-05-10T08:50:41;18.20;60.90
58993;DHT22;44782;0.000;0.000;2023-05-10T08:53:00;18.20;60.90
58993;DHT22;44782;0.000;0.000;2023-05-10T08:55:16;18.20;60.90
58993;DHT22;44782;0.000;0.000;2023-05-10T08:57:32;18.20;60.90
58993;DHT22;44782;0.000;0.000;2023-05-10T08:59:48;18.20;60.90
58993;DHT22;44782;0.000;0.000;2023-05-10T09:02:04;18.20;61.00
58993;DHT22;44782;0.000;0.000;2023-05-10T09:04:21;18.20;61.00
58993;DHT22;44782;0.000;0.000;2023-05-10T09:06:36;18.20;61.00
58993;DHT22;44782;0.000;0.000;2023-05-10T09:08:52;18.20;61.00
58993;DHT22;44782;0.000;0.000;2023-05-10T09:11:09;18.20;61.00
58993;DHT22;44782;0.000;0.000;2023-05-10T09:13:25;18.20;60.90
58993;DHT22;44782;0.000;0.000;2023-05-10T09:15:41;18.20;61.00
58993;DHT22;44782;0.000;0.000;2023-05-10T09:17:57;18.20;60.90
58993;DHT22;44782;0.000;0.000;2023-05-10T09:20:14;18.20;60.90
58993;DHT22;44782;0.000;0.000;2023-05-10T09:22:31;18.20;61.00
58993;DHT22;44782;0.000;0.000;2023-05-10T09:24:46;18.20;60.90
58993;DHT22;44782;0.000;0.000;2023-05-10T09:27:02;18.20;60.90
58993;DHT22;44782;0.000;0.000;2023-05-10T09:29:18;18.20;60.90
58993;DHT22;44782;0.000;0.000;2023-05-10T09:32:03;18.20;60.90
58993;DHT22;44782;0.000;0.000;2023-05-10T09:34:28;18.20;60.70
58993;DHT22;44782;0.000;0.000;2023-05-10T09:36:55;18.20;60.90
58993;DHT22;44782;0.000;0.000;2023-05-10T09:39:11;18.20;60.80
58993;DHT22;44782;0.000;0.000;2023-05-10T09:41:27;18.20;60.90
58993;DHT22;44782;0.000;0.000;2023-05-10T09:43:43;18.20;60.90
58993;DHT22;44782;0.000;0.000;2023-05-10T09:45:59;18.20;60.90
58993;DHT22;44782;0.000;0.000;2023-05-10T09:48:15;18.30;60.90
58993;DHT22;44782;0.000;0.000;2023-05-10T09:50:31;18.30;60.90
58993;DHT22;44782;0.000;0.000;2023-05-10T09:52:49;18.30;60.90
58993;DHT22;44782;0.000;0.000;2023-05-10T09:55:05;18.30;60.90
58993;DHT22;44782;0.000;0.000;2023-05-10T09:57:22;18.20;60.80
58993;DHT22;44782;0.000;0.000;2023-05-10T09:59:42;18.30;60.90
58993;DHT22;44782;0.000;0.000;2023-05-10T10:01:59;18.20;60.80
58993;DHT22;44782;0.000;0.000;2023-05-10T10:04:15;18.20;60.90
58993;DHT22;44782;0.000;0.000;2023-05-10T10:06:39;18.20;60.90
58993;DHT22;44782;0.000;0.000;2023-05-10T10:08:54;18.20;60.90
58993;DHT22;44782;0.000;0.000;2023-05-10T10:11:11;18.20;60.90
58993;DHT22;44782;0.000;0.000;2023-05-10T10:13:27;18.20;60.90
58993;DHT22;44782;0.000;0.000;2023-05-10T10:15:43;18.20;60.90
58993;DHT22;44782;0.000;0.000;2023-05-10T10:18:03;18.20;60.90
58993;DHT22;44782;0.000;0.000;2023-05-10T10:20:21;18.20;60.90
58993;DHT22;44782;0.000;0.000;2023-05-10T10:22:37;18.20;60.90
58993;DHT22;44782;0.000;0.000;2023-05-10T10:24:54;18.20;60.90
58993;DHT22;44782;0.000;0.000;2023-05-10T10:27:39;18.30;60.90
58993;DHT22;44782;0.000;0.000;2023-05-10T10:32:26;18.20;60.90
58993;DHT22;44782;0.000;0.000;2023-05-10T10:34:44;18.30;60.90
58993;DHT22;44782;0.000;0.000;2023-05-10T10:37:04;18.30;60.90
58993;DHT22;44782;0.000;0.000;2023-05-10T10:39:20;18.30;60.80
58993;DHT22;44782;0.000;0.000;2023-05-10T10:41:50;18.30;60.90
58993;DHT22;44782;0.000;0.000;2023-05-10T10:49:44;18.30;60.80
58993;DHT22;44782;0.000;0.000;2023-05-10T10:57:26;18.30;60.80
58993;DHT22;44782;0.000;0.000;2023-05-10T10:59:45;18.30;60.90
58993;DHT22;44782;0.000;0.000;2023-05-10T11:02:01;18.30;60.90
58993;DHT22;44782;0.000;0.000;2023-05-10T11:04:18;18.30;60.90
58993;DHT22;44782;0.000;0.000;2023-05-10T11:06:35;18.30;60.90
58993;DHT22;44782;0.000;0.000;2023-05-10T11:08:51;18.20;60.90
58993;DHT22;44782;0.000;0.000;2023-05-10T11:11:08;18.20;60.80
58993;DHT22;44782;0.000;0.000;2023-05-10T11:15:53;18.20;60.90
58993;DHT22;44782;0.000;0.000;2023-05-10T11:18:29;18.20;60.90
58993;DHT22;44782;0.000;0.000;2023-05-10T11:20:50;18.20;60.80
58993;DHT22;44782;0.000;0.000;2023-05-10T11:23:13;18.20;60.90
58993;DHT22;44782;0.000;0.000;2023-05-10T11:25:31;18.20;60.90
58993;DHT22;44782;0.000;0.000;2023-05-10T11:27:48;18.20;60.90
58993;DHT22;44782;0.000;0.000;2023-05-10T11:30:06;18.20;60.90
58993;DHT22;44782;0.000;0.000;2023-05-10T11:32:22;18.20;60.90
58993;DHT22;44782;0.000;0.000;2023-05-10T11:34:38;18.30;60.90
58993;DHT22;44782;0.000;0.000;2023-05-10T11:36:55;18.30;60.90
58993;DHT22;44782;0.000;0.000;2023-05-10T11:39:11;18.30;60.90
58993;DHT22;44782;0.000;0.000;2023-05-10T11:41:28;18.30;60.90
58993;DHT22;44782;0.000;0.000;2023-05-10T11:43:46;18.20;60.80
58993;DHT22;44782;0.000;0.000;2023-05-10T11:46:03;18.20;60.80
58993;DHT22;44782;0.000;0.000;2023-05-10T11:48:18;18.20;60.90
58993;DHT22;44782;0.000;0.000;2023-05-10T11:50:37;18.20;60.90
58993;DHT22;44782;0.000;0.000;2023-05-10T11:52:56;18.30;60.90
58993;DHT22;44782;0.000;0.000;2023-05-10T11:55:12;18.20;60.80
58993;DHT22;44782;0.000;0.000;2023-05-10T11:57:28;18.20;60.90
58993;DHT22;44782;0.000;0.000;2023-05-10T11:59:44;18.20;60.90
58993;DHT22;44782;0.000;0.000;2023-05-10T12:01:59;18.20;60.80
58993;DHT22;44782;0.000;0.000;2023-05-10T12:04:15;18.20;60.80
58993;DHT22;44782;0.000;0.000;2023-05-10T12:06:32;18.20;60.80
58993;DHT22;44782;0.000;0.000;2023-05-10T12:08:52;18.20;60.80
58993;DHT22;44782;0.000;0.000;2023-05-10T12:11:09;18.20;61.50
58993;DHT22;44782;0.000;0.000;2023-05-10T12:13:28;18.20;60.80
58993;DHT22;44782;0.000;0.000;2023-05-10T12:15:44;18.30;60.80
58993;DHT22;44782;0.000;0.000;2023-05-10T12:18:00;18.30;60.80
58993;DHT22;44782;0.000;0.000;2023-05-10T12:22:34;18.30;60.80
58993;DHT22;44782;0.000;0.000;2023-05-10T12:24:50;18.30;60.80
58993;DHT22;44782;0.000;0.000;2023-05-10T12:27:07;18.20;60.70
58993;DHT22;44782;0.000;0.000;2023-05-10T12:29:23;18.30;60.80
58993;DHT22;44782;0.000;0.000;2023-05-10T12:31:52;18.30;60.80
58993;DHT22;44782;0.000;0.000;2023-05-10T12:34:08;18.30;60.60
58993;DHT22;44782;0.000;0.000;2023-05-10T12:36:24;18.20;60.80
58993;DHT22;44782;0.000;0.000;2023-05-10T12:38:42;18.20;60.70
58993;DHT22;44782;0.000;0.000;2023-05-10T12:41:04;18.20;60.60
58993;DHT22;44782;0.000;0.000;2023-05-10T12:43:20;18.20;60.70
58993;DHT22;44782;0.000;0.000;2023-05-10T12:45:36;18.20;61.40
58993;DHT22;44782;0.000;0.000;2023-05-10T12:47:51;18.20;60.70
58993;DHT22;44782;0.000;0.000;2023-05-10T12:50:07;18.20;60.60
58993;DHT22;44782;0.000;0.000;2023-05-10T12:52:24;18.30;60.70
58993;DHT22;44782;0.000;0.000;2023-05-10T12:54:40;18.20;60.60
58993;DHT22;44782;0.000;0.000;2023-05-10T12:56:55;18.20;60.60
58993;DHT22;44782;0.000;0.000;2023-05-10T12:59:13;18.20;60.60
58993;DHT22;44782;0.000;0.000;2023-05-10T13:01:29;18.20;60.60
58993;DHT22;44782;0.000;0.000;2023-05-10T13:03:45;18.20;60.60
58993;DHT22;44782;0.000;0.000;2023-05-10T13:06:00;18.20;60.60
58993;DHT22;44782;0.000;0.000;2023-05-10T13:08:16;18.20;60.60
58993;DHT22;44782;0.000;0.000;2023-05-10T13:10:32;18.30;60.60
58993;DHT22;44782;0.000;0.000;2023-05-10T13:12:47;18.20;60.60
58993;DHT22;44782;0.000;0.000;2023-05-10T13:15:03;18.30;60.60
58993;DHT22;44782;0.000;0.000;2023-05-10T13:17:19;18.30;60.60
58993;DHT22;44782;0.000;0.000;2023-05-10T13:19:35;18.30;60.60
58993;DHT22;44782;0.000;0.000;2023-05-10T13:21:51;18.30;60.60
58993;DHT22;44782;0.000;0.000;2023-05-10T13:24:07;18.30;60.60
58993;DHT22;44782;0.000;0.000;2023-05-10T13:26:22;18.30;60.50
58993;DHT22;44782;0.000;0.000;2023-05-10T13:28:38;18.30;60.50
58993;DHT22;44782;0.000;0.000;2023-05-10T13:30:54;18.30;60.50
58993;DHT22;44782;0.000;0.000;2023-05-10T13:33:09;18.30;60.40
58993;DHT22;44782;0.000;0.000;2023-05-10T13:35:25;18.30;60.40
58993;DHT22;44782;0.000;0.000;2023-05-10T13:37:41;18.30;60.40
58993;DHT22;44782;0.000;0.000;2023-05-10T13:39:56;18.40;60.40
58993;DHT22;44782;0.000;0.000;2023-05-10T13:42:12;18.30;60.40
58993;DHT22;44782;0.000;0.000;2023-05-10T13:44:27;18.40;60.40
58993;DHT22;44782;0.000;0.000;2023-05-10T13:46:43;18.40;60.40
58993;DHT22;44782;0.000;0.000;2023-05-10T13:48:59;18.30;60.40
58993;DHT22;44782;0.000;0.000;2023-05-10T13:51:15;18.40;60.40
58993;DHT22;44782;0.000;0.000;2023-05-10T13:53:31;18.30;60.40
58993;DHT22;44782;0.000;0.000;2023-05-10T13:55:46;18.30;60.40
58993;DHT22;44782;0.000;0.000;2023-05-10T13:58:02;18.30;60.40
58993;DHT22;44782;0.000;0.000;2023-05-10T14:00:18;18.30;60.50
58993;DHT22;44782;0.000;0.000;2023-05-10T14:02:34;18.30;60.40
58993;DHT22;44782;0.000;0.000;2023-05-10T14:04:49;18.30;60.40
58993;DHT22;44782;0.000;0.000;2023-05-10T14:07:05;18.30;60.40
58993;DHT22;44782;0.000;0.000;2023-05-10T14:09:21;18.30;60.40
58993;DHT22;44782;0.000;0.000;2023-05-10T14:11:36;18.30;60.40
58993;DHT22;44782;0.000;0.000;2023-05-10T14:13:52;18.30;60.40
58993;DHT22;44782;0.000;0.000;2023-05-10T14:16:07;18.30;60.40
58993;DHT22;44782;0.000;0.000;2023-05-10T14:18:23;18.40;60.40
58993;DHT22;44782;0.000;0.000;2023-05-10T14:20:39;18.30;60.30
58993;DHT22;44782;0.000;0.000;2023-05-10T14:22:55;18.40;60.40
58993;DHT22;44782;0.000;0.000;2023-05-10T14:25:10;18.30;60.30
58993;DHT22;44782;0.000;0.000;2023-05-10T14:27:26;18.30;60.30
58993;DHT22;44782;0.000;0.000;2023-05-10T14:29:42;18.40;60.40
58993;DHT22;44782;0.000;0.000;2023-05-10T14:31:58;18.40;60.30
58993;DHT22;44782;0.000;0.000;2023-05-10T14:34:13;18.40;60.20
58993;DHT22;44782;0.000;0.000;2023-05-10T14:36:29;18.40;60.20
58993;DHT22;44782;0.000;0.000;2023-05-10T14:38:45;18.40;60.20
58993;DHT22;44782;0.000;0.000;2023-05-10T14:41:00;18.40;60.10
58993;DHT22;44782;0.000;0.000;2023-05-10T14:43:17;18.40;60.20
58993;DHT22;44782;0.000;0.000;2023-05-10T14:45:33;18.40;60.10
58993;DHT22;44782;0.000;0.000;2023-05-10T14:47:49;18.50;60.10
58993;DHT22;44782;0.000;0.000;2023-05-10T14:50:05;18.50;60.10
58993;DHT22;44782;0.000;0.000;2023-05-10T14:52:21;18.50;60.00
58993;DHT22;44782;0.000;0.000;2023-05-10T14:54:37;18.50;60.00
58993;DHT22;44782;0.000;0.000;2023-05-10T14:56:52;18.50;60.00
58993;DHT22;44782;0.000;0.000;2023-05-10T14:59:08;18.50;60.00
58993;DHT22;44782;0.000;0.000;2023-05-10T15:01:26;18.50;60.00
58993;DHT22;44782;0.000;0.000;2023-05-10T15:03:42;18.50;60.00
58993;DHT22;44782;0.000;0.000;2023-05-10T15:05:58;18.50;60.00
58993;DHT22;44782;0.000;0.000;2023-05-10T15:08:13;18.50;59.90
58993;DHT22;44782;0.000;0.000;2023-05-10T15:10:29;18.50;59.80
58993;DHT22;44782;0.000;0.000;2023-05-10T15:12:44;18.60;59.80
58993;DHT22;44782;0.000;0.000;2023-05-10T15:15:00;18.60;59.80